Time;durP1;ratioP1;P1;durP2;ratioP2;P2;SDS_P1;SDS_P2;PMS_P1;PMS_P2;Temp;Humidity;BMP_temperature;BMP_pressure;BME280_temperature;BME280_humidity;BME280_pressure;Samples;Min_cycle;Max_cycle;Signal;HPM_P1;HPM_P2
2024/04/18 00:00:42;;;;;;;2.67;2.00;;;;;;;;;;5509858;26;20312;-69
2024/04/18 00:03:07;;;;;;;1.90;1.70;;;;;;;;;;5508514;26;20271;-69
2024/04/18 00:05:32;;;;;;;2.07;1.70;;;;;;;;;;5499236;26;20389;-69
2024/04/18 00:07:57;;;;;;;3.13;1.90;;;;;;;;;;5505393;26;20237;-69
2024/04/18 00:10:23;;;;;;;2.30;2.00;;;;;;;;;;5475573;26;20286;-68
2024/04/18 00:12:48;;;;;;;2.23;1.93;;;;;;;;;;5507592;26;20243;-69
2024/04/18 00:15:16;;;;;;;2.27;1.93;;;;;;;;;;5517750;26;20269;-69
2024/04/18 00:17:41;;;;;;;2.60;1.93;;;;;;;;;;5513517;26;20232;-69
2024/04/18 00:20:06;;;;;;;5.83;2.00;;;;;;;;;;5508069;26;20286;-67
2024/04/18 00:22:32;;;;;;;2.03;1.60;;;;;;;;;;5501190;26;20235;-69
2024/04/18 00:24:57;;;;;;;2.33;1.73;;;;;;;;;;5508043;25;20237;-71
2024/04/18 00:27:22;;;;;;;2.30;1.73;;;;;;;;;;5504947;25;20290;-68
2024/04/18 00:29:47;;;;;;;2.80;2.30;;;;;;;;;;5505347;25;20240;-69
2024/04/18 00:32:15;;;;;;;2.40;2.10;;;;;;;;;;5509657;25;20274;-70
2024/04/18 00:34:41;;;;;;;2.10;1.87;;;;;;;;;;5507827;26;20278;-69
2024/04/18 00:37:06;;;;;;;2.07;1.80;;;;;;;;;;5510612;25;20236;-70
2024/04/18 00:39:31;;;;;;;4.40;2.27;;;;;;;;;;5508130;25;20341;-69
2024/04/18 00:41:56;;;;;;;3.60;1.93;;;;;;;;;;5508600;26;20244;-68
2024/04/18 00:44:22;;;;;;;2.20;2.00;;;;;;;;;;5507811;25;20227;-70
2024/04/18 00:46:50;;;;;;;4.57;2.17;;;;;;;;;;5512020;26;20671;-69
2024/04/18 00:49:15;;;;;;;4.27;2.20;;;;;;;;;;5512910;25;20223;-69
2024/04/18 00:51:41;;;;;;;4.20;2.53;;;;;;;;;;5509597;25;20906;-70
2024/04/18 00:54:06;;;;;;;2.83;1.90;;;;;;;;;;5509527;25;20585;-68
2024/04/18 00:56:32;;;;;;;2.13;1.93;;;;;;;;;;5508117;25;20233;-69
2024/04/18 00:58:57;;;;;;;5.10;2.13;;;;;;;;;;5513029;25;20274;-69
2024/04/18 01:01:25;;;;;;;3.40;2.27;;;;;;;;;;5515953;25;20239;-69
2024/04/18 01:03:50;;;;;;;4.17;2.83;;;;;;;;;;5508048;25;20282;-68
2024/04/18 01:06:15;;;;;;;5.90;2.83;;;;;;;;;;5513468;25;20236;-69
2024/04/18 01:08:41;;;;;;;3.03;2.50;;;;;;;;;;5509491;26;20259;-70
2024/04/18 01:11:06;;;;;;;3.87;2.90;;;;;;;;;;5512561;25;20328;-70
2024/04/18 01:13:34;;;;;;;4.40;2.87;;;;;;;;;;5512965;25;20310;-69
2024/04/18 01:16:00;;;;;;;3.37;2.70;;;;;;;;;;5506180;25;20301;-69
2024/04/18 01:18:25;;;;;;;4.30;3.30;;;;;;;;;;5514960;25;20228;-69
2024/04/18 01:20:51;;;;;;;5.67;3.00;;;;;;;;;;5501349;25;20584;-70
2024/04/18 01:23:16;;;;;;;3.67;2.20;;;;;;;;;;5517397;26;20715;-69
2024/04/18 01:25:41;;;;;;;3.87;2.63;;;;;;;;;;5519526;25;20228;-69
2024/04/18 01:28:06;;;;;;;3.70;2.67;;;;;;;;;;5486610;26;20248;-69
2024/04/18 01:30:31;;;;;;;4.10;2.97;;;;;;;;;;5507073;25;20285;-69
2024/04/18 01:32:57;;;;;;;4.23;2.63;;;;;;;;;;5511667;25;20579;-70
2024/04/18 01:35:22;;;;;;;3.83;2.77;;;;;;;;;;5514650;26;20600;-70
2024/04/18 01:37:47;;;;;;;6.47;2.80;;;;;;;;;;5507929;26;20296;-69
2024/04/18 01:40:12;;;;;;;3.00;2.23;;;;;;;;;;5507833;26;20774;-68
2024/04/18 01:42:38;;;;;;;4.83;2.30;;;;;;;;;;5522350;26;20232;-70
2024/04/18 01:45:03;;;;;;;4.70;3.00;;;;;;;;;;5519451;25;20262;-69
2024/04/18 01:47:28;;;;;;;3.07;2.77;;;;;;;;;;5491414;26;20232;-69
2024/04/18 01:49:53;;;;;;;3.47;2.90;;;;;;;;;;5519989;26;21072;-69
2024/04/18 01:52:19;;;;;;;3.30;2.47;;;;;;;;;;5522009;26;20243;-70
2024/04/18 01:54:44;;;;;;;2.77;2.40;;;;;;;;;;5482947;26;20233;-69
2024/04/18 01:57:09;;;;;;;5.70;3.10;;;;;;;;;;5503401;26;20291;-70
2024/04/18 01:59:34;;;;;;;4.47;2.63;;;;;;;;;;5506855;26;20765;-69
2024/04/18 02:02:00;;;;;;;3.43;2.70;;;;;;;;;;5508526;26;20235;-68
2024/04/18 02:04:25;;;;;;;7.33;4.10;;;;;;;;;;5519283;25;20286;-69
2024/04/18 02:06:50;;;;;;;4.73;2.70;;;;;;;;;;5487826;26;20292;-68
2024/04/18 02:09:16;;;;;;;3.07;2.60;;;;;;;;;;5511578;26;20281;-69
2024/04/18 02:11:41;;;;;;;4.47;2.73;;;;;;;;;;5514496;25;20236;-69
2024/04/18 02:14:07;;;;;;;5.40;3.00;;;;;;;;;;5503851;26;20328;-68
2024/04/18 02:16:32;;;;;;;3.93;3.00;;;;;;;;;;5517781;26;20224;-69
2024/04/18 02:18:57;;;;;;;6.10;3.00;;;;;;;;;;5514178;26;20245;-69
2024/04/18 02:21:22;;;;;;;3.33;3.03;;;;;;;;;;5519828;26;20223;-69
2024/04/18 02:23:47;;;;;;;4.43;3.13;;;;;;;;;;5508346;26;20728;-67
2024/04/18 02:26:13;;;;;;;4.57;3.07;;;;;;;;;;5516440;26;20715;-67
2024/04/18 02:28:38;;;;;;;4.37;3.60;;;;;;;;;;5512214;26;20313;-69
2024/04/18 02:31:04;;;;;;;4.63;3.37;;;;;;;;;;5518472;26;20247;-69
2024/04/18 02:33:29;;;;;;;3.80;3.00;;;;;;;;;;5523756;26;20274;-69
2024/04/18 02:35:54;;;;;;;5.40;3.57;;;;;;;;;;5506876;26;20229;-69
2024/04/18 02:38:20;;;;;;;8.57;4.43;;;;;;;;;;5516281;26;20262;-69
2024/04/18 02:40:45;;;;;;;6.33;4.37;;;;;;;;;;5519373;26;20275;-69
2024/04/18 02:43:10;;;;;;;7.03;4.53;;;;;;;;;;5519226;26;20235;-70
2024/04/18 02:45:35;;;;;;;7.43;5.20;;;;;;;;;;5510144;25;20232;-70
2024/04/18 02:48:00;;;;;;;10.23;6.37;;;;;;;;;;5520283;26;20282;-69
2024/04/18 02:50:26;;;;;;;9.57;7.20;;;;;;;;;;5513134;25;20236;-72
2024/04/18 02:52:51;;;;;;;11.97;7.83;;;;;;;;;;5519323;26;20279;-70
2024/04/18 02:55:16;;;;;;;13.57;8.57;;;;;;;;;;5509393;26;20310;-68
2024/04/18 02:57:41;;;;;;;11.80;7.87;;;;;;;;;;5507833;26;20231;-68
2024/04/18 03:00:07;;;;;;;11.80;8.53;;;;;;;;;;5515711;26;20267;-70
2024/04/18 03:02:32;;;;;;;16.20;10.07;;;;;;;;;;5503677;25;20235;-70
2024/04/18 03:04:57;;;;;;;14.40;9.27;;;;;;;;;;5516350;26;20788;-69
2024/04/18 03:07:22;;;;;;;12.83;8.90;;;;;;;;;;5511020;25;20790;-69
2024/04/18 03:09:47;;;;;;;15.27;10.10;;;;;;;;;;5521278;26;20223;-69
2024/04/18 03:12:13;;;;;;;15.93;9.57;;;;;;;;;;5482067;26;20256;-70
2024/04/18 03:14:42;;;;;;;14.37;9.73;;;;;;;;;;5511972;26;20240;-69
2024/04/18 03:17:08;;;;;;;16.23;9.50;;;;;;;;;;5508569;26;20270;-68
2024/04/18 03:19:33;;;;;;;13.73;9.77;;;;;;;;;;5515319;26;20683;-69
2024/04/18 03:21:58;;;;;;;15.80;10.07;;;;;;;;;;5522942;20;20292;-71
2024/04/18 03:24:23;;;;;;;16.23;10.13;;;;;;;;;;5444268;26;20272;-71
2024/04/18 03:26:50;;;;;;;16.20;10.17;;;;;;;;;;5452285;26;20280;-71
2024/04/18 03:29:15;;;;;;;16.10;10.03;;;;;;;;;;5447442;26;20245;-71
2024/04/18 03:31:41;;;;;;;16.43;9.73;;;;;;;;;;5437295;26;20800;-71
2024/04/18 03:34:06;;;;;;;17.63;10.20;;;;;;;;;;5443181;26;20237;-72
2024/04/18 03:36:34;;;;;;;15.40;9.73;;;;;;;;;;5433931;26;21082;-71
2024/04/18 03:39:00;;;;;;;14.50;11.03;;;;;;;;;;5443047;26;20650;-72
2024/04/18 03:41:26;;;;;;;17.40;10.80;;;;;;;;;;5425526;26;20725;-71
2024/04/18 03:43:51;;;;;;;16.70;9.93;;;;;;;;;;5442595;26;20279;-71
2024/04/18 03:46:16;;;;;;;17.13;11.17;;;;;;;;;;5436558;26;20230;-71
2024/04/18 03:48:41;;;;;;;18.67;11.00;;;;;;;;;;5441466;26;20241;-71
2024/04/18 03:51:07;;;;;;;14.90;10.40;;;;;;;;;;5430996;26;20226;-72
2024/04/18 03:53:32;;;;;;;19.27;11.77;;;;;;;;;;5433020;26;20616;-71
2024/04/18 03:55:57;;;;;;;19.47;11.47;;;;;;;;;;5430817;26;20301;-72
2024/04/18 03:58:22;;;;;;;17.50;11.53;;;;;;;;;;5440633;26;20245;-69
2024/04/18 04:00:48;;;;;;;17.30;11.60;;;;;;;;;;5440743;26;20230;-72
2024/04/18 04:03:13;;;;;;;18.50;11.73;;;;;;;;;;5430472;26;20699;-70
2024/04/18 04:05:38;;;;;;;18.13;10.33;;;;;;;;;;5435913;26;20230;-70
2024/04/18 04:08:05;;;;;;;17.63;10.63;;;;;;;;;;5446029;26;20238;-70
2024/04/18 04:10:30;;;;;;;17.37;11.20;;;;;;;;;;5442717;26;20309;-72
2024/04/18 04:12:55;;;;;;;17.87;10.80;;;;;;;;;;5446742;26;20234;-71
2024/04/18 04:15:20;;;;;;;16.43;10.70;;;;;;;;;;5446980;26;20280;-70
2024/04/18 04:17:46;;;;;;;20.70;11.97;;;;;;;;;;5448476;26;20768;-70
2024/04/18 04:20:11;;;;;;;13.90;9.70;;;;;;;;;;5440315;26;20263;-70
2024/04/18 04:22:36;;;;;;;21.13;10.97;;;;;;;;;;5419693;26;20293;-70
2024/04/18 04:25:01;;;;;;;15.00;9.97;;;;;;;;;;5427829;26;20230;-70
2024/04/18 04:27:27;;;;;;;14.03;9.77;;;;;;;;;;5431108;26;20237;-71
2024/04/18 04:29:52;;;;;;;16.43;11.20;;;;;;;;;;5434358;26;20651;-70
2024/04/18 04:32:21;;;;;;;16.10;9.47;;;;;;;;;;5431701;26;20304;-70
2024/04/18 04:34:49;;;;;;;15.07;9.87;;;;;;;;;;5433574;26;20237;-71
2024/04/18 04:37:17;;;;;;;13.83;10.40;;;;;;;;;;5432273;26;20229;-71
2024/04/18 04:39:43;;;;;;;15.47;10.77;;;;;;;;;;5432612;26;20732;-70
2024/04/18 04:42:08;;;;;;;12.93;9.07;;;;;;;;;;5433550;26;20239;-70
2024/04/18 04:44:33;;;;;;;15.47;10.33;;;;;;;;;;5434098;26;20241;-71
2024/04/18 04:46:58;;;;;;;15.70;9.53;;;;;;;;;;5436407;26;20753;-71
2024/04/18 04:49:23;;;;;;;16.17;9.97;;;;;;;;;;5446418;26;20241;-71
2024/04/18 04:51:48;;;;;;;15.30;9.10;;;;;;;;;;5436152;26;20235;-71
2024/04/18 04:54:14;;;;;;;13.33;10.03;;;;;;;;;;5439760;26;20230;-70
2024/04/18 04:56:39;;;;;;;15.30;10.07;;;;;;;;;;5436973;26;20633;-72
2024/04/18 04:59:04;;;;;;;17.97;10.23;;;;;;;;;;5440037;26;20238;-72
2024/04/18 05:01:29;;;;;;;17.07;9.90;;;;;;;;;;5433655;26;20362;-71
2024/04/18 05:03:54;;;;;;;18.73;10.87;;;;;;;;;;5433034;26;20641;-72
2024/04/18 05:06:20;;;;;;;19.40;12.33;;;;;;;;;;5440004;26;20284;-71
2024/04/18 05:08:45;;;;;;;20.97;11.63;;;;;;;;;;5425525;26;20272;-71
2024/04/18 05:11:10;;;;;;;20.43;12.47;;;;;;;;;;5439669;26;20241;-71
2024/04/18 05:13:36;;;;;;;15.73;10.77;;;;;;;;;;5436725;26;20346;-70
2024/04/18 05:16:01;;;;;;;14.87;10.67;;;;;;;;;;5440440;26;20358;-71
2024/04/18 05:18:26;;;;;;;18.70;10.57;;;;;;;;;;5434734;26;20345;-72
2024/04/18 05:20:51;;;;;;;17.40;11.27;;;;;;;;;;5441997;26;20242;-72
2024/04/18 05:23:16;;;;;;;16.37;10.03;;;;;;;;;;5434788;26;20237;-71
2024/04/18 05:25:42;;;;;;;15.37;9.93;;;;;;;;;;5436473;26;20234;-71
2024/04/18 05:28:11;;;;;;;14.13;10.00;;;;;;;;;;5424848;26;20281;-71
2024/04/18 05:33:20;;;;;;;12.00;8.83;;;;;;;;;;5439342;26;20332;-71
2024/04/18 05:35:46;;;;;;;11.53;8.50;;;;;;;;;;5447247;26;20245;-70
2024/04/18 05:38:11;;;;;;;14.57;9.73;;;;;;;;;;5439930;26;20245;-71
2024/04/18 05:40:36;;;;;;;13.93;8.90;;;;;;;;;;5435605;26;20248;-71
2024/04/18 05:43:01;;;;;;;12.47;8.67;;;;;;;;;;5443076;26;20307;-71
2024/04/18 05:45:26;;;;;;;14.47;8.80;;;;;;;;;;5443764;26;20745;-71
2024/04/18 05:47:52;;;;;;;11.10;8.53;;;;;;;;;;5442339;26;20729;-71
2024/04/18 05:50:17;;;;;;;11.40;8.30;;;;;;;;;;5438056;26;20237;-72
2024/04/18 05:52:42;;;;;;;10.77;7.77;;;;;;;;;;5435667;26;20233;-71
2024/04/18 05:55:07;;;;;;;13.40;9.07;;;;;;;;;;5428839;26;20237;-70
2024/04/18 05:57:32;;;;;;;13.73;8.57;;;;;;;;;;5435608;26;20225;-70
2024/04/18 05:59:58;;;;;;;10.87;8.77;;;;;;;;;;5444865;26;20314;-70
2024/04/18 06:02:23;;;;;;;11.47;8.07;;;;;;;;;;5424547;26;20257;-71
2024/04/18 06:04:48;;;;;;;10.93;7.63;;;;;;;;;;5444831;26;20290;-71
2024/04/18 06:07:13;;;;;;;9.60;7.23;;;;;;;;;;5433544;26;20273;-72
2024/04/18 06:09:38;;;;;;;11.73;7.60;;;;;;;;;;5441962;26;20238;-70
2024/04/18 06:12:04;;;;;;;10.13;8.10;;;;;;;;;;5439363;26;20238;-71
2024/04/18 06:14:29;;;;;;;10.70;7.33;;;;;;;;;;5428512;26;20305;-71
2024/04/18 06:16:54;;;;;;;11.43;7.83;;;;;;;;;;5434554;26;20268;-71
2024/04/18 06:19:19;;;;;;;12.10;7.97;;;;;;;;;;5436265;26;20250;-73
2024/04/18 06:21:45;;;;;;;14.93;9.23;;;;;;;;;;5434286;26;20260;-71
2024/04/18 06:24:10;;;;;;;13.17;9.10;;;;;;;;;;5437421;26;20261;-71
2024/04/18 06:26:35;;;;;;;12.67;8.57;;;;;;;;;;5438267;26;20269;-71
2024/04/18 06:29:00;;;;;;;12.90;8.20;;;;;;;;;;5437170;26;20234;-71
2024/04/18 06:31:25;;;;;;;13.43;8.77;;;;;;;;;;5437280;26;20648;-71
2024/04/18 06:33:51;;;;;;;13.60;8.10;;;;;;;;;;5438283;26;20257;-70
2024/04/18 06:36:16;;;;;;;12.73;8.43;;;;;;;;;;5436281;26;20241;-70
2024/04/18 06:38:41;;;;;;;12.57;7.90;;;;;;;;;;5436462;26;20234;-70
2024/04/18 06:41:06;;;;;;;9.20;6.97;;;;;;;;;;5432354;26;20301;-71
2024/04/18 06:43:31;;;;;;;11.47;7.03;;;;;;;;;;5436325;26;20712;-69
2024/04/18 06:45:57;;;;;;;7.63;5.53;;;;;;;;;;5437315;26;20237;-69
2024/04/18 06:48:22;;;;;;;9.07;5.90;;;;;;;;;;5438073;26;20261;-70
2024/04/18 06:50:47;;;;;;;9.93;6.10;;;;;;;;;;5446152;26;20799;-69
2024/04/18 06:53:12;;;;;;;10.57;5.60;;;;;;;;;;5445350;26;20237;-70
2024/04/18 06:55:38;;;;;;;13.87;5.33;;;;;;;;;;5442697;26;20238;-71
2024/04/18 06:58:03;;;;;;;7.80;5.00;;;;;;;;;;5424776;26;20273;-70
2024/04/18 07:00:28;;;;;;;6.83;4.77;;;;;;;;;;5416740;26;21414;-69
2024/04/18 07:02:54;;;;;;;7.70;5.47;;;;;;;;;;5445270;26;20245;-71
2024/04/18 07:05:20;;;;;;;9.90;7.03;;;;;;;;;;5421113;26;20238;-70
2024/04/18 07:07:46;;;;;;;11.97;7.30;;;;;;;;;;5420081;26;20238;-69
2024/04/18 07:10:11;;;;;;;12.57;6.40;;;;;;;;;;5420966;26;20580;-71
2024/04/18 07:12:36;;;;;;;7.70;5.40;;;;;;;;;;5421136;26;20241;-70
2024/04/18 07:15:01;;;;;;;7.43;3.97;;;;;;;;;;5418984;26;20234;-70
2024/04/18 07:17:27;;;;;;;6.10;3.97;;;;;;;;;;5423554;26;20276;-71
2024/04/18 07:19:52;;;;;;;5.70;4.13;;;;;;;;;;5420162;26;20244;-71
2024/04/18 07:22:17;;;;;;;5.50;3.53;;;;;;;;;;5422831;26;20276;-70
2024/04/18 07:24:44;;;;;;;5.43;3.17;;;;;;;;;;5421899;26;20235;-70
2024/04/18 07:27:10;;;;;;;3.97;3.07;;;;;;;;;;5433245;26;20605;-71
2024/04/18 07:29:35;;;;;;;4.83;2.63;;;;;;;;;;5411257;26;22586;-70
2024/04/18 07:32:01;;;;;;;5.63;3.63;;;;;;;;;;5418853;26;20408;-70
2024/04/18 07:34:26;;;;;;;6.43;3.13;;;;;;;;;;5419596;26;20724;-70
2024/04/18 07:36:51;;;;;;;5.75;2.30;;;;;;;;;;5422944;26;20249;-71
2024/04/18 07:39:18;;;;;;;3.25;1.90;;;;;;;;;;5424591;26;20229;-69
2024/04/18 07:41:43;;;;;;;5.97;2.30;;;;;;;;;;5422625;26;20336;-70
2024/04/18 07:44:11;;;;;;;4.63;1.80;;;;;;;;;;5441374;26;20241;-70
2024/04/18 07:46:36;;;;;;;2.92;2.00;;;;;;;;;;5439732;26;20600;-71
2024/04/18 07:49:02;;;;;;;2.55;2.00;;;;;;;;;;5444121;26;20291;-71
2024/04/18 07:51:27;;;;;;;4.25;2.42;;;;;;;;;;5442536;26;20264;-71
2024/04/18 07:53:52;;;;;;;6.07;2.35;;;;;;;;;;5443895;26;20229;-71
2024/04/18 07:56:17;;;;;;;3.30;1.60;;;;;;;;;;5430238;26;20284;-70
2024/04/18 07:58:42;;;;;;;2.88;1.60;;;;;;;;;;5424719;26;20245;-71
2024/04/18 08:01:11;;;;;;;3.08;1.80;;;;;;;;;;5421027;26;20234;-70
2024/04/18 08:03:37;;;;;;;4.80;1.80;;;;;;;;;;5420354;26;20288;-70
2024/04/18 08:06:03;;;;;;;2.65;1.90;;;;;;;;;;5415347;26;20299;-71
2024/04/18 08:08:28;;;;;;;1.63;1.10;;;;;;;;;;5421349;26;21651;-71
2024/04/18 08:10:53;;;;;;;3.65;1.45;;;;;;;;;;5416113;26;20254;-69
2024/04/18 08:13:18;;;;;;;2.88;1.80;;;;;;;;;;5420188;26;21106;-70
2024/04/18 08:15:43;;;;;;;2.72;1.17;;;;;;;;;;5420303;26;20272;-70
2024/04/18 08:18:09;;;;;;;6.07;1.55;;;;;;;;;;5422960;26;20234;-69
2024/04/18 08:20:34;;;;;;;4.25;1.35;;;;;;;;;;5421190;26;20998;-70
2024/04/18 08:22:59;;;;;;;1.27;0.93;;;;;;;;;;5424721;26;20233;-70
2024/04/18 08:25:24;;;;;;;2.90;1.10;;;;;;;;;;5422328;26;20238;-70
2024/04/18 08:27:50;;;;;;;2.72;1.17;;;;;;;;;;5416985;26;20882;-69
2024/04/18 08:30:15;;;;;;;2.03;0.95;;;;;;;;;;5419014;26;20241;-68
2024/04/18 08:32:40;;;;;;;3.05;1.42;;;;;;;;;;5419106;26;20582;-69
2024/04/18 08:35:05;;;;;;;2.25;1.45;;;;;;;;;;5421617;26;20750;-69
2024/04/18 08:37:31;;;;;;;3.25;1.20;;;;;;;;;;5419591;26;20242;-69
2024/04/18 08:39:56;;;;;;;1.58;1.30;;;;;;;;;;5422634;26;20241;-69
2024/04/18 08:42:22;;;;;;;1.80;1.00;;;;;;;;;;5417034;26;20608;-69
2024/04/18 08:44:51;;;;;;;3.08;1.20;;;;;;;;;;5418682;26;20287;-69
2024/04/18 08:47:17;;;;;;;2.63;1.00;;;;;;;;;;5427138;26;20226;-69
2024/04/18 08:49:43;;;;;;;1.15;0.80;;;;;;;;;;5418651;26;20249;-70
2024/04/18 08:52:09;;;;;;;3.92;1.50;;;;;;;;;;5419884;26;20740;-69
2024/04/18 08:54:34;;;;;;;3.13;1.10;;;;;;;;;;5419922;26;20241;-68
2024/04/18 08:57:00;;;;;;;5.22;1.20;;;;;;;;;;5420567;26;20272;-70
2024/04/18 08:59:25;;;;;;;4.20;1.42;;;;;;;;;;5420096;26;21557;-69
2024/04/18 09:01:50;;;;;;;4.88;1.17;;;;;;;;;;5417096;26;20268;-69
2024/04/18 09:04:16;;;;;;;1.20;0.80;;;;;;;;;;5418677;26;20237;-69
2024/04/18 09:06:41;;;;;;;6.18;1.80;;;;;;;;;;5423125;26;20241;-69
2024/04/18 09:09:09;;;;;;;3.47;1.27;;;;;;;;;;5422888;26;20238;-70
2024/04/18 09:11:34;;;;;;;4.60;1.58;;;;;;;;;;5424591;26;20606;-70
2024/04/18 09:14:00;;;;;;;2.55;0.90;;;;;;;;;;5422613;26;20333;-70
2024/04/18 09:16:25;;;;;;;5.30;1.77;;;;;;;;;;5422007;26;20358;-68
2024/04/18 09:18:51;;;;;;;3.13;1.02;;;;;;;;;;5423869;26;20752;-70
2024/04/18 09:21:16;;;;;;;3.30;0.90;;;;;;;;;;5419377;26;20733;-69
2024/04/18 09:23:41;;;;;;;1.77;0.90;;;;;;;;;;5438036;20;20285;-72
2024/04/18 09:26:07;;;;;;;4.03;1.17;;;;;;;;;;5405375;26;20361;-72
2024/04/18 09:28:38;;;;;;;4.13;0.95;;;;;;;;;;5402070;26;20234;-72
2024/04/18 09:31:03;;;;;;;6.13;1.15;;;;;;;;;;5396470;26;21857;-70
2024/04/18 09:33:28;;;;;;;2.22;0.70;;;;;;;;;;5400887;26;20238;-71
2024/04/18 09:35:59;;;;;;;2.35;1.50;;;;;;;;;;5401393;26;20331;-69
2024/04/18 09:38:25;;;;;;;4.45;1.63;;;;;;;;;;5429833;26;20310;-70
2024/04/18 09:41:11;;;;;;;2.25;1.40;;;;;;;;;;5394658;26;20232;-71
2024/04/18 09:43:41;;;;;;;5.78;1.42;;;;;;;;;;5401846;26;20235;-70
2024/04/18 09:46:08;;;;;;;4.25;1.25;;;;;;;;;;5404771;26;20246;-73
2024/04/18 09:48:34;;;;;;;3.00;1.00;;;;;;;;;;5406167;26;20234;-71
2024/04/18 09:51:00;;;;;;;2.90;1.05;;;;;;;;;;5405002;26;20408;-71
2024/04/18 09:53:25;;;;;;;7.47;1.40;;;;;;;;;;5398779;26;20249;-71
2024/04/18 09:55:50;;;;;;;2.25;1.15;;;;;;;;;;5403593;26;20628;-71
2024/04/18 09:58:18;;;;;;;6.20;1.30;;;;;;;;;;5401379;26;20283;-72
2024/04/18 10:00:43;;;;;;;3.58;1.10;;;;;;;;;;5402256;26;20285;-70
2024/04/18 10:03:09;;;;;;;3.83;0.85;;;;;;;;;;5402014;26;20247;-69
2024/04/18 10:05:36;;;;;;;3.33;1.20;;;;;;;;;;5403952;26;20612;-70
2024/04/18 10:08:01;;;;;;;3.65;1.05;;;;;;;;;;5392056;26;20246;-70
2024/04/18 10:10:27;;;;;;;3.67;0.85;;;;;;;;;;5401330;26;20342;-69
2024/04/18 10:12:53;;;;;;;0.52;0.40;;;;;;;;;;5404482;26;20238;-70
2024/04/18 10:15:19;;;;;;;0.70;0.30;;;;;;;;;;5431000;26;20273;-71
2024/04/18 10:17:44;;;;;;;1.00;0.47;;;;;;;;;;5405660;26;20233;-69
2024/04/18 10:20:12;;;;;;;4.45;0.80;;;;;;;;;;5401685;26;20703;-70
2024/04/18 10:22:37;;;;;;;1.20;0.60;;;;;;;;;;5400035;26;20302;-70
2024/04/18 10:25:03;;;;;;;0.85;0.47;;;;;;;;;;5408673;26;20230;-70
2024/04/18 10:27:28;;;;;;;1.50;0.57;;;;;;;;;;5405535;26;20233;-70
2024/04/18 10:29:55;;;;;;;2.88;0.60;;;;;;;;;;5412996;26;20302;-72
2024/04/18 10:32:21;;;;;;;2.05;0.57;;;;;;;;;;5403156;26;22722;-71
2024/04/18 10:34:46;;;;;;;3.25;0.70;;;;;;;;;;5403475;26;20235;-71
2024/04/18 10:37:18;;;;;;;2.15;0.40;;;;;;;;;;5403902;26;20823;-72
2024/04/18 10:39:46;;;;;;;1.73;0.80;;;;;;;;;;5403151;26;20803;-71
2024/04/18 10:42:11;;;;;;;4.38;0.82;;;;;;;;;;5400048;26;20257;-72
2024/04/18 10:44:37;;;;;;;0.73;0.43;;;;;;;;;;5403356;26;20243;-70
2024/04/18 10:47:03;;;;;;;6.15;0.60;;;;;;;;;;5400120;26;20290;-70
2024/04/18 10:49:29;;;;;;;5.95;1.30;;;;;;;;;;5396232;26;21229;-71
2024/04/18 10:51:56;;;;;;;2.70;0.90;;;;;;;;;;5397034;26;20804;-71
2024/04/18 10:54:21;;;;;;;1.90;0.80;;;;;;;;;;5400378;26;20889;-72
2024/04/18 10:56:46;;;;;;;5.25;2.15;;;;;;;;;;5399787;26;20311;-71
2024/04/18 10:59:12;;;;;;;6.20;1.02;;;;;;;;;;5394523;26;20242;-71
2024/04/18 11:01:37;;;;;;;1.75;0.52;;;;;;;;;;5390866;26;20647;-72
2024/04/18 11:04:02;;;;;;;2.00;0.52;;;;;;;;;;5397363;26;20250;-72
2024/04/18 11:06:28;;;;;;;0.80;0.70;;;;;;;;;;5398731;26;20314;-70
2024/04/18 11:08:53;;;;;;;3.17;0.63;;;;;;;;;;5401059;26;20315;-72
2024/04/18 11:11:23;;;;;;;2.22;0.65;;;;;;;;;;5402091;26;20573;-72
2024/04/18 11:13:49;;;;;;;2.22;0.73;;;;;;;;;;5405760;26;20299;-72
2024/04/18 11:16:14;;;;;;;1.90;0.52;;;;;;;;;;5400365;26;20733;-71
2024/04/18 11:18:39;;;;;;;2.08;0.52;;;;;;;;;;5408946;26;20913;-73
2024/04/18 11:21:05;;;;;;;1.25;0.57;;;;;;;;;;5400866;26;20736;-71
2024/04/18 11:23:30;;;;;;;2.65;0.52;;;;;;;;;;5400034;26;20262;-71
2024/04/18 11:25:56;;;;;;;2.13;0.50;;;;;;;;;;5395280;26;20239;-72
2024/04/18 11:28:23;;;;;;;0.43;0.43;;;;;;;;;;5397920;26;20289;-72
2024/04/18 11:30:48;;;;;;;1.90;0.70;;;;;;;;;;5403072;26;20230;-71
2024/04/18 11:33:18;;;;;;;2.13;0.60;;;;;;;;;;5400434;26;20268;-70
2024/04/18 11:35:43;;;;;;;0.50;0.40;;;;;;;;;;5396830;26;20377;-70
2024/04/18 11:38:09;;;;;;;1.13;0.60;;;;;;;;;;5403750;26;20904;-71
2024/04/18 11:40:34;;;;;;;5.32;0.90;;;;;;;;;;5403264;26;20276;-70
2024/04/18 11:42:59;;;;;;;1.17;0.70;;;;;;;;;;5408574;26;20331;-69
2024/04/18 11:45:24;;;;;;;2.38;1.05;;;;;;;;;;5408728;26;20230;-70
2024/04/18 11:47:59;;;;;;;1.15;0.40;;;;;;;;;;5434667;26;20294;-69
2024/04/18 11:50:27;;;;;;;2.10;0.50;;;;;;;;;;5430865;26;20257;-69
2024/04/18 11:52:55;;;;;;;2.53;0.82;;;;;;;;;;5396536;26;20238;-70
2024/04/18 11:55:21;;;;;;;1.30;0.45;;;;;;;;;;5394473;26;20235;-71
2024/04/18 11:57:46;;;;;;;1.80;0.38;;;;;;;;;;5397361;26;20246;-70
2024/04/18 12:00:13;;;;;;;1.48;0.40;;;;;;;;;;5398399;26;20331;-70
2024/04/18 12:02:38;;;;;;;1.42;0.40;;;;;;;;;;5399112;26;20271;-71
2024/04/18 12:05:03;;;;;;;2.20;0.50;;;;;;;;;;5398549;26;20621;-71
2024/04/18 12:07:29;;;;;;;1.55;0.55;;;;;;;;;;5401731;26;20246;-69
2024/04/18 12:09:55;;;;;;;2.92;0.90;;;;;;;;;;5399989;26;20301;-70
2024/04/18 12:12:20;;;;;;;1.05;0.68;;;;;;;;;;5398166;26;21189;-72
2024/04/18 12:14:49;;;;;;;2.25;0.52;;;;;;;;;;5388763;26;20891;-72
2024/04/18 12:17:15;;;;;;;1.02;0.50;;;;;;;;;;5428966;26;20265;-71
2024/04/18 12:19:40;;;;;;;0.70;0.45;;;;;;;;;;5400945;26;20617;-69
2024/04/18 12:22:10;;;;;;;2.25;0.52;;;;;;;;;;5406506;26;20324;-70
2024/04/18 12:24:35;;;;;;;3.03;0.30;;;;;;;;;;5404513;26;22244;-70
2024/04/18 12:27:00;;;;;;;1.17;0.50;;;;;;;;;;5401561;26;20230;-73
2024/04/18 12:29:26;;;;;;;2.08;0.55;;;;;;;;;;5399453;26;20693;-69
2024/04/18 12:31:51;;;;;;;2.47;0.57;;;;;;;;;;5398305;26;20268;-72
2024/04/18 12:34:16;;;;;;;1.33;0.50;;;;;;;;;;5399506;26;20322;-70
2024/04/18 12:36:42;;;;;;;3.40;1.17;;;;;;;;;;5384234;26;20239;-72
2024/04/18 12:39:07;;;;;;;1.35;0.50;;;;;;;;;;5401221;26;20293;-70
2024/04/18 12:41:32;;;;;;;2.13;0.45;;;;;;;;;;5400365;26;20650;-71
2024/04/18 12:43:57;;;;;;;2.25;0.70;;;;;;;;;;5402968;26;20306;-72
2024/04/18 12:46:24;;;;;;;3.42;0.60;;;;;;;;;;5407736;26;20237;-71
2024/04/18 12:48:49;;;;;;;0.75;0.50;;;;;;;;;;5399530;26;20359;-70
2024/04/18 12:51:14;;;;;;;4.00;0.73;;;;;;;;;;5407959;26;20729;-71
2024/04/18 12:53:40;;;;;;;3.05;1.00;;;;;;;;;;5401966;26;20755;-71
2024/04/18 12:56:05;;;;;;;0.95;0.70;;;;;;;;;;5405665;26;20533;-71
2024/04/18 12:58:30;;;;;;;0.93;0.43;;;;;;;;;;5403217;26;20297;-70
2024/04/18 13:00:55;;;;;;;1.88;0.50;;;;;;;;;;5407959;26;20519;-71
2024/04/18 13:03:21;;;;;;;0.80;0.43;;;;;;;;;;5405373;26;20249;-72
2024/04/18 13:05:46;;;;;;;1.23;0.35;;;;;;;;;;5401305;26;21086;-72
2024/04/18 13:08:12;;;;;;;2.90;0.73;;;;;;;;;;5403269;26;20455;-72
2024/04/18 13:10:37;;;;;;;1.77;0.50;;;;;;;;;;5407738;26;20366;-71
2024/04/18 13:13:02;;;;;;;2.95;0.60;;;;;;;;;;5402894;26;20251;-71
2024/04/18 13:15:27;;;;;;;1.17;0.40;;;;;;;;;;5403596;26;20280;-72
2024/04/18 13:17:52;;;;;;;1.83;0.52;;;;;;;;;;5411210;26;20235;-71
2024/04/18 13:20:18;;;;;;;1.45;0.63;;;;;;;;;;5404739;26;20392;-71
2024/04/18 13:22:43;;;;;;;2.28;0.50;;;;;;;;;;5399964;26;20293;-71
2024/04/18 13:25:08;;;;;;;0.45;0.30;;;;;;;;;;5409805;26;20591;-70
2024/04/18 13:27:33;;;;;;;1.25;0.57;;;;;;;;;;5400711;26;20688;-71
2024/04/18 13:29:58;;;;;;;1.20;0.30;;;;;;;;;;5404210;26;20227;-71
2024/04/18 13:32:24;;;;;;;1.38;0.50;;;;;;;;;;5399644;26;20238;-72
2024/04/18 13:34:52;;;;;;;2.65;0.40;;;;;;;;;;5404679;26;20233;-71
2024/04/18 13:37:18;;;;;;;6.00;0.82;;;;;;;;;;5412144;26;20265;-71
2024/04/18 13:39:44;;;;;;;0.40;0.40;;;;;;;;;;5434683;26;20239;-71
2024/04/18 13:42:10;;;;;;;2.08;0.88;;;;;;;;;;5401566;26;20283;-69
2024/04/18 13:44:35;;;;;;;2.30;1.45;;;;;;;;;;5407354;26;20733;-70
2024/04/18 13:47:00;;;;;;;1.30;0.75;;;;;;;;;;5407082;26;20581;-70
2024/04/18 13:49:26;;;;;;;1.55;0.20;;;;;;;;;;5407932;26;20288;-69
2024/04/18 13:51:51;;;;;;;1.92;0.60;;;;;;;;;;5407719;26;20230;-70
2024/04/18 13:54:16;;;;;;;2.35;0.60;;;;;;;;;;5399774;26;20258;-70
2024/04/18 13:56:42;;;;;;;3.83;0.60;;;;;;;;;;5403238;26;21050;-72
2024/04/18 13:59:07;;;;;;;1.38;0.47;;;;;;;;;;5400914;26;20278;-69
2024/04/18 14:01:32;;;;;;;1.20;0.40;;;;;;;;;;5396277;26;20270;-70
2024/04/18 14:03:57;;;;;;;2.55;0.98;;;;;;;;;;5396590;26;20238;-71
2024/04/18 14:06:25;;;;;;;1.60;0.40;;;;;;;;;;5397932;26;20229;-71
2024/04/18 14:08:50;;;;;;;2.05;0.45;;;;;;;;;;5399704;26;20313;-70
2024/04/18 14:11:15;;;;;;;2.60;0.93;;;;;;;;;;5399972;26;20246;-71
2024/04/18 14:13:40;;;;;;;1.02;0.50;;;;;;;;;;5398832;26;20363;-71
2024/04/18 14:18:50;;;;;;;1.13;0.55;;;;;;;;;;5403883;26;20824;-70
2024/04/18 14:21:16;;;;;;;2.75;0.65;;;;;;;;;;5385107;26;20253;-70
2024/04/18 14:23:41;;;;;;;1.98;0.50;;;;;;;;;;5403756;26;20757;-71
2024/04/18 14:26:07;;;;;;;3.28;0.65;;;;;;;;;;5398608;26;20294;-71
2024/04/18 14:28:32;;;;;;;3.08;0.88;;;;;;;;;;5398007;26;20238;-71
2024/04/18 14:30:57;;;;;;;2.03;0.50;;;;;;;;;;5397451;26;20320;-71
2024/04/18 14:33:22;;;;;;;2.50;0.68;;;;;;;;;;5401701;26;20238;-71